sensor_id;sensor_type;location;lat;lon;timestamp;P1;durP1;ratioP1;P2;durP2;ratioP2
17564;SDS011;62994;52.126;5.596;2024-03-08T00:01:06;22.27;;;12.73;;
17564;SDS011;62994;52.126;5.596;2024-03-08T00:03:33;23.25;;;12.27;;
17564;SDS011;62994;52.126;5.596;2024-03-08T00:06:00;27.08;;;13.48;;
17564;SDS011;62994;52.126;5.596;2024-03-08T00:08:29;21.90;;;12.30;;
17564;SDS011;62994;52.126;5.596;2024-03-08T00:11:01;23.83;;;12.83;;
17564;SDS011;62994;52.126;5.596;2024-03-08T00:13:33;27.48;;;13.65;;
17564;SDS011;62994;52.126;5.596;2024-03-08T00:16:00;22.50;;;12.88;;
17564;SDS011;62994;52.126;5.596;2024-03-08T00:18:32;21.95;;;13.05;;
17564;SDS011;62994;52.126;5.596;2024-03-08T00:20:59;25.53;;;12.53;;
17564;SDS011;62994;52.126;5.596;2024-03-08T00:23:26;21.10;;;11.55;;
17564;SDS011;62994;52.126;5.596;2024-03-08T00:25:54;32.17;;;14.13;;
17564;SDS011;62994;52.126;5.596;2024-03-08T00:28:21;20.98;;;12.50;;
17564;SDS011;62994;52.126;5.596;2024-03-08T00:30:50;22.77;;;13.45;;
17564;SDS011;62994;52.126;5.596;2024-03-08T00:33:17;24.97;;;14.00;;
17564;SDS011;62994;52.126;5.596;2024-03-08T00:35:45;22.53;;;13.63;;
17564;SDS011;62994;52.126;5.596;2024-03-08T00:38:12;22.70;;;12.90;;
17564;SDS011;62994;52.126;5.596;2024-03-08T00:40:39;22.80;;;12.30;;
17564;SDS011;62994;52.126;5.596;2024-03-08T00:43:07;32.58;;;12.98;;
17564;SDS011;62994;52.126;5.596;2024-03-08T00:45:34;31.58;;;13.70;;
17564;SDS011;62994;52.126;5.596;2024-03-08T00:48:07;24.50;;;12.90;;
17564;SDS011;62994;52.126;5.596;2024-03-08T00:50:36;26.60;;;14.47;;
17564;SDS011;62994;52.126;5.596;2024-03-08T00:53:04;26.43;;;13.83;;
17564;SDS011;62994;52.126;5.596;2024-03-08T00:55:31;29.83;;;13.93;;
17564;SDS011;62994;52.126;5.596;2024-03-08T00:58:01;29.00;;;13.70;;
17564;SDS011;62994;52.126;5.596;2024-03-08T01:00:30;26.67;;;13.57;;
17564;SDS011;62994;52.126;5.596;2024-03-08T01:02:57;23.13;;;12.18;;
17564;SDS011;62994;52.126;5.596;2024-03-08T01:05:25;27.97;;;13.30;;
17564;SDS011;62994;52.126;5.596;2024-03-08T01:07:52;26.20;;;13.03;;
17564;SDS011;62994;52.126;5.596;2024-03-08T01:10:24;26.50;;;13.33;;
17564;SDS011;62994;52.126;5.596;2024-03-08T01:12:52;27.83;;;13.20;;
17564;SDS011;62994;52.126;5.596;2024-03-08T01:15:19;27.95;;;13.43;;
17564;SDS011;62994;52.126;5.596;2024-03-08T01:17:46;26.70;;;13.33;;
17564;SDS011;62994;52.126;5.596;2024-03-08T01:20:13;27.83;;;13.60;;
17564;SDS011;62994;52.126;5.596;2024-03-08T01:22:40;21.77;;;12.17;;
17564;SDS011;62994;52.126;5.596;2024-03-08T01:25:08;26.17;;;13.47;;
17564;SDS011;62994;52.126;5.596;2024-03-08T01:27:36;23.30;;;12.93;;
17564;SDS011;62994;52.126;5.596;2024-03-08T01:30:03;22.27;;;13.37;;
17564;SDS011;62994;52.126;5.596;2024-03-08T01:32:36;26.20;;;12.90;;
17564;SDS011;62994;52.126;5.596;2024-03-08T01:35:04;23.57;;;12.37;;
17564;SDS011;62994;52.126;5.596;2024-03-08T01:37:34;27.83;;;12.57;;
17564;SDS011;62994;52.126;5.596;2024-03-08T01:40:01;27.63;;;12.93;;
17564;SDS011;62994;52.126;5.596;2024-03-08T01:42:29;25.77;;;13.67;;
17564;SDS011;62994;52.126;5.596;2024-03-08T01:44:57;31.47;;;13.43;;
17564;SDS011;62994;52.126;5.596;2024-03-08T01:47:24;21.23;;;12.90;;
17564;SDS011;62994;52.126;5.596;2024-03-08T01:49:57;21.10;;;13.20;;
17564;SDS011;62994;52.126;5.596;2024-03-08T01:52:26;26.17;;;13.83;;
17564;SDS011;62994;52.126;5.596;2024-03-08T01:54:55;23.43;;;12.57;;
17564;SDS011;62994;52.126;5.596;2024-03-08T01:57:22;23.90;;;13.20;;
17564;SDS011;62994;52.126;5.596;2024-03-08T01:59:50;25.53;;;13.97;;
17564;SDS011;62994;52.126;5.596;2024-03-08T02:02:21;25.80;;;13.47;;
17564;SDS011;62994;52.126;5.596;2024-03-08T02:04:54;24.53;;;12.40;;
17564;SDS011;62994;52.126;5.596;2024-03-08T02:07:26;24.53;;;12.73;;
17564;SDS011;62994;52.126;5.596;2024-03-08T02:09:53;26.47;;;12.77;;
17564;SDS011;62994;52.126;5.596;2024-03-08T02:12:20;25.60;;;12.60;;
17564;SDS011;62994;52.126;5.596;2024-03-08T02:14:47;26.60;;;12.93;;
17564;SDS011;62994;52.126;5.596;2024-03-08T02:17:14;22.80;;;12.40;;
17564;SDS011;62994;52.126;5.596;2024-03-08T02:19:42;21.77;;;13.53;;
17564;SDS011;62994;52.126;5.596;2024-03-08T02:22:11;25.70;;;13.23;;
17564;SDS011;62994;52.126;5.596;2024-03-08T02:24:39;21.77;;;12.43;;
17564;SDS011;62994;52.126;5.596;2024-03-08T02:27:06;26.92;;;17.10;;
17564;SDS011;62994;52.126;5.596;2024-03-08T02:29:33;21.90;;;12.90;;
17564;SDS011;62994;52.126;5.596;2024-03-08T02:32:00;25.57;;;14.80;;
17564;SDS011;62994;52.126;5.596;2024-03-08T02:34:28;22.87;;;13.37;;
17564;SDS011;62994;52.126;5.596;2024-03-08T02:36:56;22.70;;;13.53;;
17564;SDS011;62994;52.126;5.596;2024-03-08T02:39:25;25.63;;;12.97;;
17564;SDS011;62994;52.126;5.596;2024-03-08T02:41:52;20.20;;;12.60;;
17564;SDS011;62994;52.126;5.596;2024-03-08T02:44:24;22.70;;;13.70;;
17564;SDS011;62994;52.126;5.596;2024-03-08T02:46:54;21.83;;;13.20;;
17564;SDS011;62994;52.126;5.596;2024-03-08T02:49:21;22.33;;;12.37;;
17564;SDS011;62994;52.126;5.596;2024-03-08T02:51:48;19.97;;;12.57;;
17564;SDS011;62994;52.126;5.596;2024-03-08T02:54:15;24.73;;;14.00;;
17564;SDS011;62994;52.126;5.596;2024-03-08T02:56:49;28.57;;;13.50;;
17564;SDS011;62994;52.126;5.596;2024-03-08T02:59:16;18.80;;;12.03;;
17564;SDS011;62994;52.126;5.596;2024-03-08T03:01:44;22.03;;;13.30;;
17564;SDS011;62994;52.126;5.596;2024-03-08T03:04:11;21.77;;;12.50;;
17564;SDS011;62994;52.126;5.596;2024-03-08T03:06:38;23.47;;;13.63;;
17564;SDS011;62994;52.126;5.596;2024-03-08T03:09:05;22.83;;;13.27;;
17564;SDS011;62994;52.126;5.596;2024-03-08T03:11:35;20.20;;;12.70;;
17564;SDS011;62994;52.126;5.596;2024-03-08T03:14:04;24.33;;;12.63;;
17564;SDS011;62994;52.126;5.596;2024-03-08T03:16:32;24.50;;;13.53;;
17564;SDS011;62994;52.126;5.596;2024-03-08T03:18:59;23.00;;;12.80;;
17564;SDS011;62994;52.126;5.596;2024-03-08T03:21:28;23.03;;;13.50;;
17564;SDS011;62994;52.126;5.596;2024-03-08T03:23:56;18.37;;;11.90;;
17564;SDS011;62994;52.126;5.596;2024-03-08T03:26:29;20.57;;;14.43;;
17564;SDS011;62994;52.126;5.596;2024-03-08T03:28:56;24.53;;;12.53;;
17564;SDS011;62994;52.126;5.596;2024-03-08T03:31:27;24.23;;;12.27;;
17564;SDS011;62994;52.126;5.596;2024-03-08T03:33:54;28.13;;;14.13;;
17564;SDS011;62994;52.126;5.596;2024-03-08T03:36:26;24.17;;;17.40;;
17564;SDS011;62994;52.126;5.596;2024-03-08T03:38:53;29.43;;;14.80;;
17564;SDS011;62994;52.126;5.596;2024-03-08T03:41:35;28.30;;;15.23;;
17564;SDS011;62994;52.126;5.596;2024-03-08T03:44:03;25.17;;;13.73;;
17564;SDS011;62994;52.126;5.596;2024-03-08T03:46:33;21.80;;;13.43;;
17564;SDS011;62994;52.126;5.596;2024-03-08T03:49:00;25.27;;;13.47;;
17564;SDS011;62994;52.126;5.596;2024-03-08T03:51:28;23.37;;;13.70;;
17564;SDS011;62994;52.126;5.596;2024-03-08T03:53:55;22.67;;;13.57;;
17564;SDS011;62994;52.126;5.596;2024-03-08T03:56:25;24.07;;;13.40;;
17564;SDS011;62994;52.126;5.596;2024-03-08T03:58:52;20.90;;;12.87;;
17564;SDS011;62994;52.126;5.596;2024-03-08T04:01:19;25.10;;;14.50;;
17564;SDS011;62994;52.126;5.596;2024-03-08T04:03:48;21.63;;;13.40;;
17564;SDS011;62994;52.126;5.596;2024-03-08T04:06:15;25.00;;;13.30;;
17564;SDS011;62994;52.126;5.596;2024-03-08T04:08:42;21.50;;;13.00;;
17564;SDS011;62994;52.126;5.596;2024-03-08T04:11:09;24.27;;;13.23;;
17564;SDS011;62994;52.126;5.596;2024-03-08T04:13:36;25.57;;;13.77;;
17564;SDS011;62994;52.126;5.596;2024-03-08T04:16:03;27.80;;;13.03;;
17564;SDS011;62994;52.126;5.596;2024-03-08T04:18:33;22.43;;;13.70;;
17564;SDS011;62994;52.126;5.596;2024-03-08T04:21:04;25.60;;;13.40;;
17564;SDS011;62994;52.126;5.596;2024-03-08T04:23:33;24.00;;;12.97;;
17564;SDS011;62994;52.126;5.596;2024-03-08T04:26:01;22.53;;;13.53;;
17564;SDS011;62994;52.126;5.596;2024-03-08T04:28:29;24.50;;;13.63;;
17564;SDS011;62994;52.126;5.596;2024-03-08T04:30:56;28.23;;;13.30;;
17564;SDS011;62994;52.126;5.596;2024-03-08T04:33:25;21.47;;;13.10;;
17564;SDS011;62994;52.126;5.596;2024-03-08T04:35:53;22.13;;;14.60;;
17564;SDS011;62994;52.126;5.596;2024-03-08T04:38:21;24.53;;;13.33;;
17564;SDS011;62994;52.126;5.596;2024-03-08T04:40:49;24.93;;;13.67;;
17564;SDS011;62994;52.126;5.596;2024-03-08T04:43:17;23.67;;;13.17;;
17564;SDS011;62994;52.126;5.596;2024-03-08T04:45:45;34.50;;;17.77;;
17564;SDS011;62994;52.126;5.596;2024-03-08T04:48:13;24.20;;;14.87;;
17564;SDS011;62994;52.126;5.596;2024-03-08T04:50:40;28.77;;;15.17;;
17564;SDS011;62994;52.126;5.596;2024-03-08T04:53:10;24.37;;;15.30;;
17564;SDS011;62994;52.126;5.596;2024-03-08T04:55:50;26.20;;;14.20;;
17564;SDS011;62994;52.126;5.596;2024-03-08T04:58:17;24.37;;;13.87;;
17564;SDS011;62994;52.126;5.596;2024-03-08T05:00:44;29.07;;;14.70;;
17564;SDS011;62994;52.126;5.596;2024-03-08T05:03:11;27.37;;;13.80;;
17564;SDS011;62994;52.126;5.596;2024-03-08T05:05:38;25.97;;;13.60;;
17564;SDS011;62994;52.126;5.596;2024-03-08T05:08:05;24.57;;;13.83;;
17564;SDS011;62994;52.126;5.596;2024-03-08T05:10:34;25.87;;;13.33;;
17564;SDS011;62994;52.126;5.596;2024-03-08T05:13:03;30.00;;;13.23;;
17564;SDS011;62994;52.126;5.596;2024-03-08T05:15:30;23.00;;;13.67;;
17564;SDS011;62994;52.126;5.596;2024-03-08T05:18:00;30.23;;;14.33;;
17564;SDS011;62994;52.126;5.596;2024-03-08T05:20:27;28.23;;;14.40;;
17564;SDS011;62994;52.126;5.596;2024-03-08T05:22:54;25.47;;;14.47;;
17564;SDS011;62994;52.126;5.596;2024-03-08T05:25:24;24.20;;;13.67;;
17564;SDS011;62994;52.126;5.596;2024-03-08T05:27:51;27.93;;;13.97;;
17564;SDS011;62994;52.126;5.596;2024-03-08T05:30:20;21.27;;;13.23;;
17564;SDS011;62994;52.126;5.596;2024-03-08T05:32:47;22.23;;;13.77;;
17564;SDS011;62994;52.126;5.596;2024-03-08T05:35:14;22.17;;;13.43;;
17564;SDS011;62994;52.126;5.596;2024-03-08T05:37:41;22.17;;;13.67;;
17564;SDS011;62994;52.126;5.596;2024-03-08T05:40:08;27.90;;;14.73;;
17564;SDS011;62994;52.126;5.596;2024-03-08T05:42:36;25.80;;;13.67;;
17564;SDS011;62994;52.126;5.596;2024-03-08T05:45:03;31.17;;;14.73;;
17564;SDS011;62994;52.126;5.596;2024-03-08T05:47:33;25.57;;;15.00;;
17564;SDS011;62994;52.126;5.596;2024-03-08T05:50:00;28.37;;;15.33;;
17564;SDS011;62994;52.126;5.596;2024-03-08T05:52:29;28.30;;;17.67;;
17564;SDS011;62994;52.126;5.596;2024-03-08T05:54:56;23.27;;;13.87;;
17564;SDS011;62994;52.126;5.596;2024-03-08T05:57:23;26.50;;;13.70;;
17564;SDS011;62994;52.126;5.596;2024-03-08T05:59:50;31.70;;;14.93;;
17564;SDS011;62994;52.126;5.596;2024-03-08T06:02:17;26.93;;;14.97;;
17564;SDS011;62994;52.126;5.596;2024-03-08T06:04:46;25.70;;;18.00;;
17564;SDS011;62994;52.126;5.596;2024-03-08T06:07:13;30.10;;;14.10;;
17564;SDS011;62994;52.126;5.596;2024-03-08T06:09:40;26.33;;;14.33;;
17564;SDS011;62994;52.126;5.596;2024-03-08T06:12:12;21.93;;;13.40;;
17564;SDS011;62994;52.126;5.596;2024-03-08T06:14:43;29.40;;;14.70;;
17564;SDS011;62994;52.126;5.596;2024-03-08T06:17:11;31.23;;;18.60;;
17564;SDS011;62994;52.126;5.596;2024-03-08T06:19:38;27.47;;;13.67;;
17564;SDS011;62994;52.126;5.596;2024-03-08T06:22:06;24.60;;;14.37;;
17564;SDS011;62994;52.126;5.596;2024-03-08T06:24:36;26.57;;;13.50;;
17564;SDS011;62994;52.126;5.596;2024-03-08T06:27:03;25.83;;;14.60;;
17564;SDS011;62994;52.126;5.596;2024-03-08T06:29:31;24.70;;;14.33;;
17564;SDS011;62994;52.126;5.596;2024-03-08T06:32:02;24.67;;;13.17;;
17564;SDS011;62994;52.126;5.596;2024-03-08T06:34:29;20.73;;;13.77;;
17564;SDS011;62994;52.126;5.596;2024-03-08T06:36:59;26.10;;;13.87;;
17564;SDS011;62994;52.126;5.596;2024-03-08T06:39:28;23.10;;;14.43;;
17564;SDS011;62994;52.126;5.596;2024-03-08T06:41:56;25.70;;;14.13;;
17564;SDS011;62994;52.126;5.596;2024-03-08T06:44:30;27.93;;;15.00;;
17564;SDS011;62994;52.126;5.596;2024-03-08T06:46:59;24.90;;;14.63;;
17564;SDS011;62994;52.126;5.596;2024-03-08T06:49:26;29.30;;;15.47;;
17564;SDS011;62994;52.126;5.596;2024-03-08T06:51:54;23.00;;;13.73;;
17564;SDS011;62994;52.126;5.596;2024-03-08T06:54:22;25.57;;;14.57;;
17564;SDS011;62994;52.126;5.596;2024-03-08T06:56:51;31.07;;;15.93;;
17564;SDS011;62994;52.126;5.596;2024-03-08T06:59:18;21.83;;;13.90;;
17564;SDS011;62994;52.126;5.596;2024-03-08T07:01:45;25.50;;;15.13;;
17564;SDS011;62994;52.126;5.596;2024-03-08T07:04:19;26.83;;;14.33;;
17564;SDS011;62994;52.126;5.596;2024-03-08T07:06:46;27.13;;;14.87;;
17564;SDS011;62994;52.126;5.596;2024-03-08T07:09:14;26.10;;;14.63;;
17564;SDS011;62994;52.126;5.596;2024-03-08T07:11:43;31.67;;;14.40;;
17564;SDS011;62994;52.126;5.596;2024-03-08T07:14:13;27.20;;;14.57;;
17564;SDS011;62994;52.126;5.596;2024-03-08T07:16:41;24.93;;;14.77;;
17564;SDS011;62994;52.126;5.596;2024-03-08T07:19:09;28.00;;;13.90;;
17564;SDS011;62994;52.126;5.596;2024-03-08T07:21:38;27.90;;;15.50;;
17564;SDS011;62994;52.126;5.596;2024-03-08T07:24:05;30.37;;;15.43;;
17564;SDS011;62994;52.126;5.596;2024-03-08T07:26:49;24.87;;;14.27;;
17564;SDS011;62994;52.126;5.596;2024-03-08T07:29:24;26.40;;;15.37;;
17564;SDS011;62994;52.126;5.596;2024-03-08T07:31:51;29.90;;;16.30;;
17564;SDS011;62994;52.126;5.596;2024-03-08T07:34:27;22.83;;;14.60;;
17564;SDS011;62994;52.126;5.596;2024-03-08T07:36:57;29.53;;;14.63;;
17564;SDS011;62994;52.126;5.596;2024-03-08T07:39:24;23.43;;;14.53;;
17564;SDS011;62994;52.126;5.596;2024-03-08T07:41:51;25.73;;;14.97;;
17564;SDS011;62994;52.126;5.596;2024-03-08T07:44:18;26.17;;;14.67;;
17564;SDS011;62994;52.126;5.596;2024-03-08T07:46:47;25.00;;;14.93;;
17564;SDS011;62994;52.126;5.596;2024-03-08T07:49:14;24.80;;;14.67;;
17564;SDS011;62994;52.126;5.596;2024-03-08T07:51:41;26.67;;;14.90;;
17564;SDS011;62994;52.126;5.596;2024-03-08T07:54:08;28.07;;;15.10;;
17564;SDS011;62994;52.126;5.596;2024-03-08T07:56:35;30.03;;;15.47;;
17564;SDS011;62994;52.126;5.596;2024-03-08T07:59:02;24.93;;;14.67;;
17564;SDS011;62994;52.126;5.596;2024-03-08T08:01:30;34.23;;;15.83;;
17564;SDS011;62994;52.126;5.596;2024-03-08T08:04:00;27.17;;;14.20;;
17564;SDS011;62994;52.126;5.596;2024-03-08T08:06:27;32.93;;;15.17;;
17564;SDS011;62994;52.126;5.596;2024-03-08T08:08:57;27.23;;;15.60;;
17564;SDS011;62994;52.126;5.596;2024-03-08T08:11:25;28.63;;;15.37;;
17564;SDS011;62994;52.126;5.596;2024-03-08T08:13:53;27.57;;;14.73;;
17564;SDS011;62994;52.126;5.596;2024-03-08T08:16:22;29.90;;;15.83;;
17564;SDS011;62994;52.126;5.596;2024-03-08T08:18:51;27.73;;;16.93;;
17564;SDS011;62994;52.126;5.596;2024-03-08T08:21:19;26.03;;;15.07;;
17564;SDS011;62994;52.126;5.596;2024-03-08T08:23:47;27.27;;;15.67;;
17564;SDS011;62994;52.126;5.596;2024-03-08T08:26:14;27.37;;;15.17;;
17564;SDS011;62994;52.126;5.596;2024-03-08T08:28:43;30.17;;;14.60;;
17564;SDS011;62994;52.126;5.596;2024-03-08T08:31:11;22.10;;;14.30;;
17564;SDS011;62994;52.126;5.596;2024-03-08T08:33:38;22.95;;;15.20;;
17564;SDS011;62994;52.126;5.596;2024-03-08T08:36:06;23.60;;;13.82;;
17564;SDS011;62994;52.126;5.596;2024-03-08T08:38:36;24.73;;;15.40;;
17564;SDS011;62994;52.126;5.596;2024-03-08T08:41:04;23.27;;;14.27;;
17564;SDS011;62994;52.126;5.596;2024-03-08T08:43:31;22.03;;;13.97;;
17564;SDS011;62994;52.126;5.596;2024-03-08T08:45:59;24.47;;;13.80;;
17564;SDS011;62994;52.126;5.596;2024-03-08T08:48:27;26.02;;;14.82;;
17564;SDS011;62994;52.126;5.596;2024-03-08T08:50:54;23.47;;;14.33;;
17564;SDS011;62994;52.126;5.596;2024-03-08T08:53:21;23.20;;;14.13;;
17564;SDS011;62994;52.126;5.596;2024-03-08T08:55:50;28.17;;;15.00;;
17564;SDS011;62994;52.126;5.596;2024-03-08T08:58:18;25.63;;;14.40;;
17564;SDS011;62994;52.126;5.596;2024-03-08T09:00:45;24.55;;;14.65;;
17564;SDS011;62994;52.126;5.596;2024-03-08T09:03:13;29.48;;;16.17;;
17564;SDS011;62994;52.126;5.596;2024-03-08T09:05:42;22.52;;;15.75;;
17564;SDS011;62994;52.126;5.596;2024-03-08T09:08:09;23.70;;;15.32;;
17564;SDS011;62994;52.126;5.596;2024-03-08T09:10:36;24.60;;;14.45;;
17564;SDS011;62994;52.126;5.596;2024-03-08T09:13:06;27.75;;;16.98;;
17564;SDS011;62994;52.126;5.596;2024-03-08T09:15:35;26.02;;;15.02;;
17564;SDS011;62994;52.126;5.596;2024-03-08T09:18:05;23.45;;;14.57;;
17564;SDS011;62994;52.126;5.596;2024-03-08T09:20:34;25.95;;;15.90;;
17564;SDS011;62994;52.126;5.596;2024-03-08T09:23:02;22.38;;;15.35;;
17564;SDS011;62994;52.126;5.596;2024-03-08T09:25:30;24.42;;;15.75;;
17564;SDS011;62994;52.126;5.596;2024-03-08T09:27:58;21.92;;;14.00;;
17564;SDS011;62994;52.126;5.596;2024-03-08T09:30:26;30.30;;;15.52;;
17564;SDS011;62994;52.126;5.596;2024-03-08T09:32:55;24.48;;;14.70;;
17564;SDS011;62994;52.126;5.596;2024-03-08T09:35:23;20.60;;;14.50;;
17564;SDS011;62994;52.126;5.596;2024-03-08T09:37:50;22.13;;;14.88;;
17564;SDS011;62994;52.126;5.596;2024-03-08T09:40:18;20.67;;;14.30;;
17564;SDS011;62994;52.126;5.596;2024-03-08T09:42:49;21.60;;;15.07;;
17564;SDS011;62994;52.126;5.596;2024-03-08T09:45:16;25.17;;;15.65;;
17564;SDS011;62994;52.126;5.596;2024-03-08T09:47:45;22.27;;;15.40;;
17564;SDS011;62994;52.126;5.596;2024-03-08T09:50:14;19.98;;;13.43;;
17564;SDS011;62994;52.126;5.596;2024-03-08T09:52:43;23.20;;;14.82;;
17564;SDS011;62994;52.126;5.596;2024-03-08T09:55:14;18.85;;;14.52;;
17564;SDS011;62994;52.126;5.596;2024-03-08T09:57:47;18.90;;;14.48;;
17564;SDS011;62994;52.126;5.596;2024-03-08T10:00:28;31.95;;;17.30;;
17564;SDS011;62994;52.126;5.596;2024-03-08T10:03:02;22.30;;;14.98;;
17564;SDS011;62994;52.126;5.596;2024-03-08T10:05:32;22.85;;;15.57;;
17564;SDS011;62994;52.126;5.596;2024-03-08T10:08:01;20.75;;;15.73;;
17564;SDS011;62994;52.126;5.596;2024-03-08T10:10:30;21.20;;;14.10;;
17564;SDS011;62994;52.126;5.596;2024-03-08T10:12:57;25.30;;;15.23;;
17564;SDS011;62994;52.126;5.596;2024-03-08T10:15:26;22.92;;;15.77;;
17564;SDS011;62994;52.126;5.596;2024-03-08T10:17:55;20.45;;;14.73;;
17564;SDS011;62994;52.126;5.596;2024-03-08T10:20:29;27.00;;;15.10;;
17564;SDS011;62994;52.126;5.596;2024-03-08T10:22:59;18.88;;;15.20;;
17564;SDS011;62994;52.126;5.596;2024-03-08T10:25:28;19.02;;;14.52;;
17564;SDS011;62994;52.126;5.596;2024-03-08T10:27:56;20.70;;;15.15;;
17564;SDS011;62994;52.126;5.596;2024-03-08T10:30:23;19.02;;;14.18;;
17564;SDS011;62994;52.126;5.596;2024-03-08T10:32:50;20.13;;;15.60;;
17564;SDS011;62994;52.126;5.596;2024-03-08T10:35:17;22.85;;;15.82;;
17564;SDS011;62994;52.126;5.596;2024-03-08T10:37:47;17.83;;;14.65;;
17564;SDS011;62994;52.126;5.596;2024-03-08T10:40:23;20.92;;;15.43;;
17564;SDS011;62994;52.126;5.596;2024-03-08T10:42:59;18.08;;;14.52;;
17564;SDS011;62994;52.126;5.596;2024-03-08T10:45:30;18.80;;;13.98;;
17564;SDS011;62994;52.126;5.596;2024-03-08T10:48:04;20.73;;;14.65;;
17564;SDS011;62994;52.126;5.596;2024-03-08T10:50:47;18.67;;;14.20;;
17564;SDS011;62994;52.126;5.596;2024-03-08T10:53:17;16.85;;;13.73;;
17564;SDS011;62994;52.126;5.596;2024-03-08T10:55:46;17.88;;;13.65;;
17564;SDS011;62994;52.126;5.596;2024-03-08T10:58:14;16.40;;;14.27;;
17564;SDS011;62994;52.126;5.596;2024-03-08T11:00:42;19.50;;;14.73;;
17564;SDS011;62994;52.126;5.596;2024-03-08T11:03:22;16.15;;;13.85;;
17564;SDS011;62994;52.126;5.596;2024-03-08T11:06:14;19.30;;;14.05;;
17564;SDS011;62994;52.126;5.596;2024-03-08T11:08:44;20.73;;;13.65;;
17564;SDS011;62994;52.126;5.596;2024-03-08T11:11:25;18.05;;;14.05;;
17564;SDS011;62994;52.126;5.596;2024-03-08T11:13:55;14.13;;;12.30;;
17564;SDS011;62994;52.126;5.596;2024-03-08T11:16:38;17.27;;;13.23;;
17564;SDS011;62994;52.126;5.596;2024-03-08T11:21:57;14.15;;;12.63;;
17564;SDS011;62994;52.126;5.596;2024-03-08T11:24:26;17.00;;;12.15;;
17564;SDS011;62994;52.126;5.596;2024-03-08T11:26:56;12.75;;;11.32;;
17564;SDS011;62994;52.126;5.596;2024-03-08T11:29:38;14.10;;;12.68;;
17564;SDS011;62994;52.126;5.596;2024-03-08T11:32:09;15.73;;;12.30;;
17564;SDS011;62994;52.126;5.596;2024-03-08T11:34:37;12.15;;;10.85;;
17564;SDS011;62994;52.126;5.596;2024-03-08T11:37:10;13.07;;;11.77;;
17564;SDS011;62994;52.126;5.596;2024-03-08T11:39:41;12.90;;;11.48;;
17564;SDS011;62994;52.126;5.596;2024-03-08T11:42:13;12.50;;;11.20;;
17564;SDS011;62994;52.126;5.596;2024-03-08T11:44:42;14.82;;;12.77;;
17564;SDS011;62994;52.126;5.596;2024-03-08T11:47:09;15.18;;;12.07;;
17564;SDS011;62994;52.126;5.596;2024-03-08T11:49:37;13.98;;;12.48;;
17564;SDS011;62994;52.126;5.596;2024-03-08T11:52:04;13.38;;;11.80;;
17564;SDS011;62994;52.126;5.596;2024-03-08T11:54:32;13.35;;;11.85;;
17564;SDS011;62994;52.126;5.596;2024-03-08T11:57:01;17.75;;;12.02;;
17564;SDS011;62994;52.126;5.596;2024-03-08T11:59:28;14.23;;;11.82;;
17564;SDS011;62994;52.126;5.596;2024-03-08T12:02:02;15.75;;;12.02;;
17564;SDS011;62994;52.126;5.596;2024-03-08T12:04:31;13.05;;;11.35;;
17564;SDS011;62994;52.126;5.596;2024-03-08T12:07:01;14.05;;;12.65;;
17564;SDS011;62994;52.126;5.596;2024-03-08T12:09:28;14.35;;;12.85;;
17564;SDS011;62994;52.126;5.596;2024-03-08T12:11:55;18.20;;;11.80;;
17564;SDS011;62994;52.126;5.596;2024-03-08T12:14:29;12.40;;;11.05;;
17564;SDS011;62994;52.126;5.596;2024-03-08T12:16:57;14.52;;;11.90;;
17564;SDS011;62994;52.126;5.596;2024-03-08T12:19:29;14.48;;;11.02;;
17564;SDS011;62994;52.126;5.596;2024-03-08T12:21:57;11.48;;;10.20;;
17564;SDS011;62994;52.126;5.596;2024-03-08T12:24:35;11.85;;;10.45;;
17564;SDS011;62994;52.126;5.596;2024-03-08T12:27:12;12.05;;;10.90;;
17564;SDS011;62994;52.126;5.596;2024-03-08T12:29:46;12.38;;;11.18;;
17564;SDS011;62994;52.126;5.596;2024-03-08T12:32:13;11.15;;;10.15;;
17564;SDS011;62994;52.126;5.596;2024-03-08T12:34:41;13.15;;;11.50;;
17564;SDS011;62994;52.126;5.596;2024-03-08T12:37:10;12.18;;;10.98;;
17564;SDS011;62994;52.126;5.596;2024-03-08T12:39:40;13.65;;;11.13;;
17564;SDS011;62994;52.126;5.596;2024-03-08T12:42:08;12.70;;;11.40;;
17564;SDS011;62994;52.126;5.596;2024-03-08T12:44:35;12.68;;;11.43;;
17564;SDS011;62994;52.126;5.596;2024-03-08T12:47:09;12.88;;;11.65;;
17564;SDS011;62994;52.126;5.596;2024-03-08T12:49:37;12.00;;;10.82;;
17564;SDS011;62994;52.126;5.596;2024-03-08T12:52:08;13.30;;;11.90;;
17564;SDS011;62994;52.126;5.596;2024-03-08T12:54:37;12.77;;;11.25;;
17564;SDS011;62994;52.126;5.596;2024-03-08T12:57:04;12.93;;;11.57;;
17564;SDS011;62994;52.126;5.596;2024-03-08T12:59:32;13.07;;;11.77;;
17564;SDS011;62994;52.126;5.596;2024-03-08T13:02:00;13.57;;;12.13;;
17564;SDS011;62994;52.126;5.596;2024-03-08T13:04:34;16.60;;;12.95;;
17564;SDS011;62994;52.126;5.596;2024-03-08T13:07:01;14.23;;;12.15;;
17564;SDS011;62994;52.126;5.596;2024-03-08T13:09:29;13.55;;;12.07;;
17564;SDS011;62994;52.126;5.596;2024-03-08T13:12:02;15.02;;;11.90;;
17564;SDS011;62994;52.126;5.596;2024-03-08T13:14:29;14.20;;;12.55;;
17564;SDS011;62994;52.126;5.596;2024-03-08T13:16:58;12.23;;;11.13;;
17564;SDS011;62994;52.126;5.596;2024-03-08T13:19:25;13.60;;;12.05;;
17564;SDS011;62994;52.126;5.596;2024-03-08T13:21:54;13.38;;;11.88;;
17564;SDS011;62994;52.126;5.596;2024-03-08T13:24:21;13.52;;;11.65;;
17564;SDS011;62994;52.126;5.596;2024-03-08T13:26:50;14.70;;;12.68;;
17564;SDS011;62994;52.126;5.596;2024-03-08T13:29:17;14.20;;;12.57;;
17564;SDS011;62994;52.126;5.596;2024-03-08T13:31:46;12.23;;;10.95;;
17564;SDS011;62994;52.126;5.596;2024-03-08T13:34:16;13.40;;;12.10;;
17564;SDS011;62994;52.126;5.596;2024-03-08T13:36:44;15.38;;;12.05;;
17564;SDS011;62994;52.126;5.596;2024-03-08T13:39:17;12.95;;;11.68;;
17564;SDS011;62994;52.126;5.596;2024-03-08T13:41:46;14.20;;;11.68;;
17564;SDS011;62994;52.126;5.596;2024-03-08T13:44:13;14.27;;;12.13;;
17564;SDS011;62994;52.126;5.596;2024-03-08T13:46:47;14.88;;;12.23;;
17564;SDS011;62994;52.126;5.596;2024-03-08T13:49:16;13.40;;;11.93;;
17564;SDS011;62994;52.126;5.596;2024-03-08T13:51:46;13.20;;;12.00;;
17564;SDS011;62994;52.126;5.596;2024-03-08T13:54:15;14.43;;;12.95;;
17564;SDS011;62994;52.126;5.596;2024-03-08T13:56:44;12.40;;;11.10;;
17564;SDS011;62994;52.126;5.596;2024-03-08T13:59:11;13.38;;;11.65;;
17564;SDS011;62994;52.126;5.596;2024-03-08T14:01:38;13.00;;;11.77;;
17564;SDS011;62994;52.126;5.596;2024-03-08T14:04:10;14.55;;;12.93;;
17564;SDS011;62994;52.126;5.596;2024-03-08T14:06:44;14.57;;;11.98;;
17564;SDS011;62994;52.126;5.596;2024-03-08T14:09:11;14.38;;;12.40;;
17564;SDS011;62994;52.126;5.596;2024-03-08T14:11:42;15.77;;;12.05;;
17564;SDS011;62994;52.126;5.596;2024-03-08T14:14:10;13.75;;;12.38;;
17564;SDS011;62994;52.126;5.596;2024-03-08T14:16:40;13.35;;;12.05;;
17564;SDS011;62994;52.126;5.596;2024-03-08T14:19:22;13.63;;;12.30;;
17564;SDS011;62994;52.126;5.596;2024-03-08T14:21:50;15.07;;;12.48;;
17564;SDS011;62994;52.126;5.596;2024-03-08T14:24:18;14.30;;;12.75;;
17564;SDS011;62994;52.126;5.596;2024-03-08T14:26:47;13.07;;;11.32;;
17564;SDS011;62994;52.126;5.596;2024-03-08T14:29:15;15.63;;;12.68;;
17564;SDS011;62994;52.126;5.596;2024-03-08T14:31:43;17.10;;;12.38;;
17564;SDS011;62994;52.126;5.596;2024-03-08T14:34:14;13.57;;;12.02;;